createdAt,value
2023-07-17T00:01:09.978Z,1.37
2023-07-17T00:03:37.961Z,2.12
2023-07-17T00:06:05.862Z,2.17
2023-07-17T00:08:33.468Z,1.73
2023-07-17T00:11:01.162Z,1.95
2023-07-17T00:13:28.657Z,1.55
2023-07-17T00:15:56.071Z,1.10
2023-07-17T00:18:23.759Z,1.75
2023-07-17T00:20:51.177Z,2.55
2023-07-17T00:23:18.596Z,1.50
2023-07-17T00:25:46.499Z,1.92
2023-07-17T00:28:13.912Z,2.22
2023-07-17T00:30:41.990Z,1.58
2023-07-17T00:33:10.427Z,1.10
2023-07-17T00:35:38.037Z,2.10
2023-07-17T00:38:05.490Z,1.45
2023-07-17T00:40:33.855Z,1.52
2023-07-17T00:43:02.067Z,1.50
2023-07-17T00:45:33.297Z,1.02
2023-07-17T00:48:03.919Z,1.70
2023-07-17T00:50:31.631Z,2.10
2023-07-17T00:52:59.083Z,1.80
2023-07-17T00:55:27.039Z,1.37
2023-07-17T00:57:54.732Z,1.90
2023-07-17T01:00:24.259Z,1.55
2023-07-17T01:02:53.736Z,2.40
2023-07-17T01:05:21.368Z,2.05
2023-07-17T01:07:48.903Z,1.83
2023-07-17T01:10:16.762Z,1.62
2023-07-17T01:12:44.608Z,1.45
2023-07-17T01:15:12.176Z,2.00
2023-07-17T01:17:40.181Z,1.85
2023-07-17T01:20:10.751Z,2.03
2023-07-17T01:22:55.552Z,2.22
2023-07-17T01:25:23.400Z,1.33
2023-07-17T01:27:51.073Z,2.08
2023-07-17T01:30:18.733Z,1.58
2023-07-17T01:32:46.512Z,1.98
2023-07-17T01:35:14.342Z,0.93
2023-07-17T01:37:43.893Z,1.77
2023-07-17T01:40:15.090Z,2.05
2023-07-17T01:42:42.541Z,1.80
2023-07-17T01:45:11.235Z,2.53
2023-07-17T01:47:39.015Z,1.00
2023-07-17T01:50:07.103Z,3.12
2023-07-17T01:52:34.598Z,1.85
2023-07-17T01:55:02.336Z,1.73
2023-07-17T01:57:30.611Z,2.15
2023-07-17T01:59:58.030Z,2.20
2023-07-17T02:02:27.038Z,1.98
2023-07-17T02:04:55.404Z,2.35
2023-07-17T02:07:22.906Z,2.17
2023-07-17T02:09:50.348Z,1.25
2023-07-17T02:12:19.638Z,1.92
2023-07-17T02:14:47.200Z,1.00
2023-07-17T02:17:14.704Z,1.77
2023-07-17T02:19:42.563Z,2.00
2023-07-17T02:22:10.036Z,2.33
2023-07-17T02:24:37.558Z,2.08
2023-07-17T02:27:05.618Z,2.30
2023-07-17T02:29:33.824Z,2.50
2023-07-17T02:32:01.349Z,2.28
2023-07-17T02:34:29.933Z,1.85
2023-07-17T02:36:57.575Z,2.28
2023-07-17T02:39:25.022Z,3.47
2023-07-17T02:41:52.927Z,1.90
2023-07-17T02:44:20.953Z,1.73
2023-07-17T02:46:48.613Z,2.05
2023-07-17T02:49:16.525Z,1.92
2023-07-17T02:51:43.976Z,2.55
2023-07-17T02:54:11.999Z,2.30
2023-07-17T02:56:39.747Z,2.55
2023-07-17T02:59:07.276Z,1.37
2023-07-17T03:01:34.922Z,2.65
2023-07-17T03:04:02.865Z,1.62
2023-07-17T03:06:30.437Z,1.52
2023-07-17T03:08:57.849Z,2.12
2023-07-17T03:11:25.557Z,1.58
2023-07-17T03:13:53.017Z,1.52
2023-07-17T03:16:20.533Z,1.33
2023-07-17T03:18:48.353Z,2.53
2023-07-17T03:21:17.130Z,2.10
2023-07-17T03:23:44.915Z,1.45
2023-07-17T03:26:12.612Z,1.92
2023-07-17T03:28:40.796Z,2.40
2023-07-17T03:31:10.774Z,2.17
2023-07-17T03:33:40.736Z,1.75
2023-07-17T03:36:08.244Z,1.62
2023-07-17T03:38:35.823Z,1.80
2023-07-17T03:41:04.323Z,2.22
2023-07-17T03:43:31.816Z,1.87
2023-07-17T03:45:59.225Z,2.03
2023-07-17T03:48:27.487Z,1.98
2023-07-17T03:50:55.399Z,2.78
2023-07-17T03:53:22.809Z,1.77
2023-07-17T03:55:51.749Z,1.08
2023-07-17T03:58:19.206Z,2.72
2023-07-17T04:00:46.687Z,1.60
2023-07-17T04:03:14.756Z,1.75
2023-07-17T04:05:43.033Z,1.60
2023-07-17T04:08:10.599Z,1.83
2023-07-17T04:10:38.316Z,3.37
2023-07-17T04:13:05.926Z,2.70
2023-07-17T04:15:36.292Z,2.53
2023-07-17T04:18:04.425Z,2.00
2023-07-17T04:20:32.086Z,2.60
2023-07-17T04:22:59.732Z,1.67
2023-07-17T04:25:27.497Z,1.23
2023-07-17T04:27:54.975Z,1.23
2023-07-17T04:30:23.876Z,2.33
2023-07-17T04:32:54.469Z,2.95
2023-07-17T04:35:22.095Z,2.83
2023-07-17T04:37:50.456Z,1.60
2023-07-17T04:40:18.760Z,1.40
2023-07-17T04:42:48.018Z,2.12
2023-07-17T04:45:16.813Z,3.83
2023-07-17T04:47:44.612Z,1.75
2023-07-17T04:50:13.027Z,2.55
2023-07-17T04:52:40.549Z,2.58
2023-07-17T04:55:08.886Z,1.92
2023-07-17T04:57:36.485Z,2.80
2023-07-17T05:00:06.717Z,2.22
2023-07-17T05:02:34.527Z,2.20
2023-07-17T05:05:02.024Z,1.27
2023-07-17T05:07:29.666Z,2.03
2023-07-17T05:09:58.048Z,1.73
2023-07-17T05:12:25.477Z,1.75
2023-07-17T05:14:53.212Z,1.73
2023-07-17T05:17:22.034Z,2.05
2023-07-17T05:19:49.583Z,1.83
2023-07-17T05:22:17.163Z,2.35
2023-07-17T05:24:45.580Z,1.52
2023-07-17T05:27:13.079Z,2.42
2023-07-17T05:29:40.550Z,2.62
2023-07-17T05:32:08.384Z,1.23
2023-07-17T05:34:35.874Z,2.08
2023-07-17T05:37:04.621Z,1.20
2023-07-17T05:39:33.131Z,1.25
2023-07-17T05:42:00.724Z,2.22
2023-07-17T05:44:28.198Z,1.73
2023-07-17T05:46:56.579Z,1.70
2023-07-17T05:49:24.397Z,1.67
2023-07-17T05:51:51.907Z,1.50
2023-07-17T05:54:19.729Z,1.60
2023-07-17T05:56:47.221Z,2.00
2023-07-17T05:59:14.880Z,1.17
2023-07-17T06:01:43.067Z,2.45
2023-07-17T06:04:10.993Z,2.87
2023-07-17T06:06:38.476Z,2.05
2023-07-17T06:09:05.911Z,1.90
2023-07-17T06:11:33.619Z,1.27
2023-07-17T06:14:01.276Z,1.33
2023-07-17T06:16:28.813Z,0.93
2023-07-17T06:18:57.207Z,1.02
2023-07-17T06:21:24.686Z,0.82
2023-07-17T06:23:52.378Z,2.12
2023-07-17T06:26:20.144Z,1.02
2023-07-17T06:28:48.583Z,1.10
2023-07-17T06:31:16.339Z,1.58
2023-07-17T06:33:44.317Z,1.77
2023-07-17T06:36:11.785Z,1.48
2023-07-17T06:38:39.354Z,1.40
2023-07-17T06:41:07.169Z,1.60
2023-07-17T06:43:34.793Z,1.37
2023-07-17T06:46:02.431Z,1.60
2023-07-17T06:48:30.228Z,1.65
2023-07-17T06:50:57.824Z,1.70
2023-07-17T06:53:25.269Z,1.80
2023-07-17T06:56:00.664Z,2.65
2023-07-17T06:58:28.701Z,1.35
2023-07-17T07:00:58.323Z,1.08
2023-07-17T07:03:27.562Z,1.37
2023-07-17T07:05:56.403Z,2.17
2023-07-17T07:08:27.889Z,1.58
2023-07-17T07:10:57.105Z,1.20
2023-07-17T07:13:25.501Z,1.10
2023-07-17T07:15:53.102Z,1.23
2023-07-17T07:18:21.462Z,1.30
2023-07-17T07:20:52.630Z,1.15
2023-07-17T07:23:21.055Z,1.80
2023-07-17T07:25:48.916Z,1.83
2023-07-17T07:28:16.514Z,1.42
2023-07-17T07:30:44.008Z,0.90
2023-07-17T07:33:12.181Z,1.85
2023-07-17T07:35:44.700Z,1.87
2023-07-17T07:38:12.415Z,1.33
2023-07-17T07:40:40.583Z,0.90
2023-07-17T07:43:08.065Z,1.73
2023-07-17T07:45:35.879Z,1.20
2023-07-17T07:48:03.657Z,1.23
2023-07-17T07:50:34.903Z,0.95
2023-07-17T07:53:03.546Z,1.25
2023-07-17T07:55:31.110Z,1.45
2023-07-17T07:57:58.697Z,1.20
2023-07-17T08:00:26.568Z,1.87
2023-07-17T08:02:56.191Z,1.60
2023-07-17T08:05:23.959Z,1.65
2023-07-17T08:07:51.420Z,1.40
2023-07-17T08:10:19.313Z,1.40
2023-07-17T08:12:47.035Z,1.30
2023-07-17T08:15:14.577Z,1.27
2023-07-17T08:17:42.397Z,1.83
2023-07-17T08:20:10.346Z,1.23
2023-07-17T08:22:38.000Z,1.27
2023-07-17T08:25:06.512Z,1.23
2023-07-17T08:27:34.306Z,1.40
2023-07-17T08:30:01.921Z,1.40
2023-07-17T08:32:29.689Z,1.40
2023-07-17T08:34:57.571Z,1.30
2023-07-17T08:37:25.127Z,1.45
2023-07-17T08:39:52.910Z,1.48
2023-07-17T08:42:20.369Z,2.28
2023-07-17T08:44:47.864Z,1.85
2023-07-17T08:47:15.846Z,2.10
2023-07-17T08:49:44.154Z,1.30
2023-07-17T08:52:12.303Z,0.90
2023-07-17T08:54:40.219Z,1.75
2023-07-17T08:57:07.979Z,1.37
2023-07-17T08:59:36.125Z,1.08
2023-07-17T09:02:05.334Z,2.20
2023-07-17T09:04:34.261Z,1.23
2023-07-17T09:07:01.770Z,1.48
2023-07-17T09:09:29.629Z,1.65
2023-07-17T09:12:10.380Z,1.23
2023-07-17T09:14:39.082Z,1.55
2023-07-17T09:17:09.269Z,1.30
2023-07-17T09:19:37.429Z,1.95
2023-07-17T09:22:06.799Z,1.52
2023-07-17T09:24:36.077Z,2.08
2023-07-17T09:27:09.933Z,1.50
2023-07-17T09:29:42.792Z,1.35
2023-07-17T09:32:19.942Z,1.70
2023-07-17T09:35:05.383Z,1.52
2023-07-17T09:37:34.056Z,1.27
2023-07-17T09:40:08.473Z,1.52
2023-07-17T09:42:36.441Z,1.65
2023-07-17T09:45:04.810Z,2.35
2023-07-17T09:47:33.122Z,2.00
2023-07-17T09:50:02.471Z,1.90
2023-07-17T09:52:31.428Z,1.80
2023-07-17T09:55:01.990Z,1.85
2023-07-17T10:00:15.424Z,1.60
2023-07-17T10:02:52.221Z,1.92
2023-07-17T10:05:20.040Z,1.92
2023-07-17T10:07:49.593Z,1.55
2023-07-17T10:10:17.322Z,1.58
2023-07-17T10:12:45.894Z,1.83
2023-07-17T10:15:15.350Z,1.60
2023-07-17T10:17:43.092Z,1.25
2023-07-17T10:20:12.185Z,2.08
2023-07-17T10:22:46.431Z,1.73
2023-07-17T10:25:20.005Z,1.83
2023-07-17T10:27:51.451Z,2.00
2023-07-17T10:30:23.899Z,1.40
2023-07-17T10:33:18.317Z,1.58
2023-07-17T10:35:48.798Z,1.25
2023-07-17T10:38:30.579Z,1.25
2023-07-17T10:41:13.637Z,1.60
2023-07-17T10:44:01.796Z,2.28
2023-07-17T10:46:39.025Z,1.83
2023-07-17T10:49:10.716Z,2.37
2023-07-17T10:54:06.792Z,2.37
2023-07-17T10:56:34.362Z,2.17
2023-07-17T10:59:02.791Z,1.62
2023-07-17T11:01:31.887Z,1.73
2023-07-17T11:03:59.655Z,1.80
2023-07-17T11:06:28.365Z,1.30
2023-07-17T11:08:56.499Z,2.20
2023-07-17T11:11:24.004Z,2.90
2023-07-17T11:13:54.055Z,1.40
2023-07-17T11:16:22.999Z,1.27
2023-07-17T11:18:53.751Z,1.52
2023-07-17T11:21:23.967Z,1.95
2023-07-17T11:23:53.630Z,2.33
2023-07-17T11:26:29.199Z,1.70
2023-07-17T11:28:58.298Z,1.83
2023-07-17T11:31:30.795Z,2.28
2023-07-17T11:34:00.360Z,2.28
2023-07-17T11:36:33.170Z,1.48
2023-07-17T11:39:21.672Z,1.10
2023-07-17T11:41:49.144Z,1.23
2023-07-17T11:44:22.148Z,2.40
2023-07-17T11:46:49.602Z,1.48
2023-07-17T11:49:17.423Z,1.60
2023-07-17T11:51:47.740Z,1.30
2023-07-17T11:54:15.389Z,0.70
2023-07-17T11:56:44.798Z,0.55
2023-07-17T11:59:19.206Z,1.25
2023-07-17T12:01:47.704Z,1.75
2023-07-17T12:04:25.710Z,1.23
2023-07-17T12:06:59.714Z,0.80
2023-07-17T12:09:27.983Z,1.15
2023-07-17T12:11:56.538Z,1.02
2023-07-17T12:14:24.021Z,0.80
2023-07-17T12:16:51.832Z,1.42
2023-07-17T12:19:20.293Z,1.15
2023-07-17T12:21:49.688Z,0.95
2023-07-17T12:24:17.504Z,1.62
2023-07-17T12:26:44.979Z,0.88
2023-07-17T12:29:12.496Z,1.48
2023-07-17T12:31:40.307Z,1.37
2023-07-17T12:34:09.084Z,1.37
2023-07-17T12:36:36.727Z,0.93
2023-07-17T12:39:15.606Z,1.05
2023-07-17T12:41:43.554Z,1.85
2023-07-17T12:44:11.814Z,1.85
2023-07-17T12:46:39.602Z,1.73
2023-07-17T12:49:07.260Z,1.42
2023-07-17T12:51:36.042Z,1.67
2023-07-17T12:54:03.891Z,1.15
2023-07-17T12:56:32.720Z,1.08
2023-07-17T12:59:00.641Z,1.23
2023-07-17T13:01:28.346Z,1.70
2023-07-17T13:03:56.374Z,0.82
2023-07-17T13:06:27.041Z,1.27
2023-07-17T13:08:54.571Z,1.02
2023-07-17T13:11:22.790Z,1.50
2023-07-17T13:13:51.589Z,1.67
2023-07-17T13:16:19.785Z,2.05
2023-07-17T13:18:47.556Z,0.50
2023-07-17T13:21:15.389Z,1.10
2023-07-17T13:23:42.834Z,1.27
2023-07-17T13:26:10.608Z,1.50
2023-07-17T13:28:38.434Z,1.08
2023-07-17T13:31:10.434Z,1.23
2023-07-17T13:33:39.145Z,1.45
2023-07-17T13:36:07.416Z,1.12
2023-07-17T13:38:35.171Z,1.35
2023-07-17T13:41:03.640Z,1.12
2023-07-17T13:43:31.125Z,1.25
2023-07-17T13:45:58.594Z,1.23
2023-07-17T13:48:26.398Z,1.55
2023-07-17T13:50:53.900Z,1.55
2023-07-17T13:53:21.493Z,1.05
2023-07-17T13:55:49.351Z,1.42
2023-07-17T13:58:17.112Z,1.65
2023-07-17T14:00:44.892Z,1.67
2023-07-17T14:03:12.727Z,1.30
2023-07-17T14:05:40.465Z,1.62
2023-07-17T14:08:07.956Z,1.48
2023-07-17T14:10:35.771Z,1.00
2023-07-17T14:13:03.988Z,2.20
2023-07-17T14:15:31.651Z,1.25
2023-07-17T14:17:59.594Z,1.27
2023-07-17T14:20:27.091Z,0.90
2023-07-17T14:22:54.607Z,1.58
2023-07-17T14:25:24.908Z,1.35
2023-07-17T14:27:52.485Z,1.62
2023-07-17T14:30:20.170Z,1.55
2023-07-17T14:32:48.261Z,1.30
2023-07-17T14:35:15.841Z,1.45
2023-07-17T14:37:43.530Z,1.77
2023-07-17T14:40:11.676Z,2.75
2023-07-17T14:42:39.176Z,1.52
2023-07-17T14:45:07.119Z,2.40
2023-07-17T14:47:35.063Z,2.30
2023-07-17T14:50:05.347Z,1.65
2023-07-17T14:52:33.261Z,1.20
2023-07-17T14:55:01.047Z,1.48
2023-07-17T14:57:28.513Z,2.05
2023-07-17T14:59:56.007Z,0.65
2023-07-17T15:02:23.814Z,1.10
2023-07-17T15:04:51.270Z,1.00
2023-07-17T15:07:18.830Z,1.45
2023-07-17T15:09:46.813Z,0.93
2023-07-17T15:12:14.621Z,1.23
2023-07-17T15:14:42.091Z,3.25
2023-07-17T15:17:09.952Z,1.92
2023-07-17T15:19:42.049Z,1.42
2023-07-17T15:22:10.743Z,2.25
2023-07-17T15:24:38.300Z,1.30
2023-07-17T15:27:06.933Z,1.98
2023-07-17T15:29:35.070Z,1.83
2023-07-17T15:32:03.725Z,1.58
2023-07-17T15:34:31.163Z,1.17
2023-07-17T15:36:58.904Z,1.23
2023-07-17T15:39:26.431Z,1.67
2023-07-17T15:41:54.128Z,0.98
2023-07-17T15:44:22.108Z,1.08
2023-07-17T15:46:50.619Z,1.20
2023-07-17T15:49:18.061Z,0.85
2023-07-17T15:51:45.882Z,1.45
2023-07-17T15:54:13.419Z,1.67
2023-07-17T15:56:40.842Z,2.53
2023-07-17T15:59:08.622Z,1.00
2023-07-17T16:01:36.243Z,1.45
2023-07-17T16:04:04.161Z,0.80
2023-07-17T16:06:31.714Z,0.85
2023-07-17T16:08:59.148Z,0.82
2023-07-17T16:11:27.718Z,0.95
2023-07-17T16:13:55.261Z,2.12
2023-07-17T16:16:22.777Z,1.15
2023-07-17T16:18:50.552Z,1.73
2023-07-17T16:21:18.287Z,0.95
2023-07-17T16:23:45.730Z,0.95
2023-07-17T16:26:13.450Z,1.00
2023-07-17T16:28:40.942Z,0.95
2023-07-17T16:31:08.671Z,0.95
2023-07-17T16:33:36.502Z,0.73
2023-07-17T16:36:04.135Z,0.32
2023-07-17T16:38:31.790Z,0.73
2023-07-17T16:40:59.615Z,0.80
2023-07-17T16:43:27.059Z,0.45
2023-07-17T16:45:54.735Z,1.05
2023-07-17T16:48:22.559Z,0.60
2023-07-17T16:50:50.029Z,0.77
2023-07-17T16:53:17.573Z,0.65
2023-07-17T16:55:45.403Z,0.85
2023-07-17T16:58:15.213Z,0.43
2023-07-17T17:00:42.710Z,0.47
2023-07-17T17:03:10.655Z,0.80
2023-07-17T17:05:38.421Z,0.95
2023-07-17T17:08:06.067Z,0.88
2023-07-17T17:10:34.730Z,1.48
2023-07-17T17:13:02.197Z,1.25
2023-07-17T17:15:30.986Z,0.73
2023-07-17T17:17:58.813Z,0.77
2023-07-17T17:20:26.515Z,1.40
2023-07-17T17:22:55.980Z,0.73
2023-07-17T17:25:23.870Z,1.62
2023-07-17T17:27:51.402Z,0.93
2023-07-17T17:30:20.833Z,0.28
2023-07-17T17:32:48.601Z,0.85
2023-07-17T17:35:16.350Z,0.60
2023-07-17T17:37:45.070Z,0.82
2023-07-17T17:40:13.435Z,0.40
2023-07-17T17:42:40.943Z,1.10
2023-07-17T17:45:11.128Z,0.20
2023-07-17T17:47:38.917Z,0.32
2023-07-17T17:50:06.867Z,0.70
2023-07-17T17:52:37.484Z,0.73
2023-07-17T17:55:05.832Z,0.40
2023-07-17T17:57:33.411Z,0.60
2023-07-17T18:00:01.006Z,0.60
2023-07-17T18:02:30.973Z,0.60
2023-07-17T18:04:58.738Z,1.30
2023-07-17T18:07:26.280Z,0.43
2023-07-17T18:09:53.707Z,0.65
2023-07-17T18:12:21.538Z,1.00
2023-07-17T18:14:49.002Z,0.80
2023-07-17T18:17:17.176Z,0.52
2023-07-17T18:19:45.037Z,0.68
2023-07-17T18:22:12.853Z,0.75
2023-07-17T18:24:41.053Z,0.50
2023-07-17T18:27:08.944Z,0.40
2023-07-17T18:29:36.982Z,0.50
2023-07-17T18:32:04.836Z,1.17
2023-07-17T18:34:33.297Z,0.30
2023-07-17T18:37:01.051Z,0.47
2023-07-17T18:39:28.961Z,1.00
2023-07-17T18:41:58.107Z,0.73
2023-07-17T18:44:25.538Z,0.93
2023-07-17T18:46:53.178Z,1.58
2023-07-17T18:49:21.971Z,0.60
2023-07-17T18:51:49.496Z,0.65
2023-07-17T18:54:17.185Z,0.68
2023-07-17T18:56:45.179Z,0.60
2023-07-17T18:59:20.647Z,0.30
2023-07-17T19:01:58.466Z,0.22
2023-07-17T19:04:26.901Z,0.80
2023-07-17T19:06:55.699Z,0.60
2023-07-17T19:09:25.745Z,0.70
2023-07-17T19:11:54.960Z,0.93
2023-07-17T19:14:25.357Z,1.25
2023-07-17T19:16:53.009Z,0.62
2023-07-17T19:19:20.811Z,0.35
2023-07-17T19:21:48.625Z,1.15
2023-07-17T19:24:16.023Z,0.57
2023-07-17T19:26:43.734Z,1.17
2023-07-17T19:29:11.530Z,0.55
2023-07-17T19:31:39.187Z,0.55
2023-07-17T19:34:06.823Z,1.10
2023-07-17T19:36:36.088Z,0.30
2023-07-17T19:39:03.913Z,0.73
2023-07-17T19:41:31.419Z,0.37
2023-07-17T19:43:59.840Z,0.40
2023-07-17T19:46:27.822Z,0.60
2023-07-17T19:48:55.739Z,0.50
2023-07-17T19:51:23.596Z,0.90
2023-07-17T19:53:51.138Z,0.57
2023-07-17T19:56:18.826Z,0.40
2023-07-17T19:58:47.020Z,0.62
2023-07-17T20:01:14.477Z,0.77
2023-07-17T20:03:42.650Z,0.40
2023-07-17T20:06:14.594Z,0.88
2023-07-17T20:08:42.577Z,1.27
2023-07-17T20:11:10.014Z,1.05
2023-07-17T20:13:37.583Z,0.20
2023-07-17T20:16:05.452Z,0.47
2023-07-17T20:18:32.962Z,0.55
2023-07-17T20:21:00.523Z,0.60
2023-07-17T20:23:28.903Z,1.05
2023-07-17T20:25:56.384Z,0.88
2023-07-17T20:28:23.888Z,0.32
2023-07-17T20:30:51.597Z,0.43
2023-07-17T20:33:19.114Z,1.20
2023-07-17T20:35:46.610Z,0.40
2023-07-17T20:38:14.700Z,0.70
2023-07-17T20:40:42.218Z,0.90
2023-07-17T20:43:09.708Z,0.88
2023-07-17T20:45:49.703Z,0.68
2023-07-17T20:48:17.528Z,0.73
2023-07-17T20:51:03.406Z,0.22
2023-07-17T20:53:31.040Z,0.30
2023-07-17T20:55:58.909Z,0.55
2023-07-17T20:58:26.531Z,0.57
2023-07-17T21:01:01.190Z,0.65
2023-07-17T21:03:29.811Z,0.50
2023-07-17T21:05:57.244Z,0.57
2023-07-17T21:08:27.112Z,0.77
2023-07-17T21:10:57.686Z,0.43
2023-07-17T21:13:25.477Z,0.57
2023-07-17T21:15:54.191Z,0.50
2023-07-17T21:18:22.004Z,0.50
2023-07-17T21:20:49.531Z,0.30
2023-07-17T21:23:17.217Z,0.50
2023-07-17T21:25:45.616Z,1.02
2023-07-17T21:28:13.122Z,0.20
2023-07-17T21:30:40.826Z,0.20
2023-07-17T21:33:09.043Z,0.55
2023-07-17T21:35:36.520Z,0.70
2023-07-17T21:38:04.044Z,0.40
2023-07-17T21:40:31.846Z,1.05
2023-07-17T21:42:59.302Z,0.65
2023-07-17T21:45:26.984Z,0.20
2023-07-17T21:47:54.849Z,1.52
2023-07-17T21:50:23.045Z,0.75
2023-07-17T21:52:50.553Z,0.40
2023-07-17T21:55:18.351Z,0.10
2023-07-17T21:57:45.833Z,0.60
2023-07-17T22:00:14.261Z,0.70
2023-07-17T22:02:44.856Z,0.52
2023-07-17T22:05:13.907Z,1.10
2023-07-17T22:07:41.648Z,1.02
2023-07-17T22:10:09.633Z,0.50
2023-07-17T22:12:37.122Z,0.93
2023-07-17T22:15:05.328Z,0.57
2023-07-17T22:17:33.033Z,0.75
2023-07-17T22:20:04.318Z,0.73
2023-07-17T22:22:32.114Z,0.77
2023-07-17T22:24:59.619Z,0.50
2023-07-17T22:27:27.668Z,0.37
2023-07-17T22:29:59.856Z,0.98
2023-07-17T22:34:56.810Z,0.20
2023-07-17T22:37:25.179Z,0.28
2023-07-17T22:39:53.751Z,0.40
2023-07-17T22:42:22.506Z,0.65
2023-07-17T22:44:52.940Z,0.47
2023-07-17T22:47:21.161Z,0.57
2023-07-17T22:49:49.621Z,0.28
2023-07-17T22:52:21.989Z,0.62
2023-07-17T22:54:53.579Z,0.60
2023-07-17T22:57:22.154Z,0.37
2023-07-17T22:59:49.834Z,0.70
2023-07-17T23:02:17.564Z,0.47
2023-07-17T23:04:45.208Z,0.62
2023-07-17T23:07:13.017Z,0.80
2023-07-17T23:09:40.752Z,0.98
2023-07-17T23:12:09.148Z,0.60
2023-07-17T23:14:38.120Z,0.45
2023-07-17T23:17:08.117Z,0.40
2023-07-17T23:19:35.670Z,1.08
2023-07-17T23:22:03.747Z,0.73
2023-07-17T23:24:31.905Z,0.60
2023-07-17T23:26:59.623Z,0.32
2023-07-17T23:29:27.367Z,0.43
2023-07-17T23:31:55.286Z,0.40
2023-07-17T23:34:22.869Z,0.73
2023-07-17T23:36:50.624Z,0.50
2023-07-17T23:39:21.393Z,0.60
2023-07-17T23:41:50.875Z,0.47
2023-07-17T23:44:18.830Z,0.60
2023-07-17T23:46:46.437Z,0.60
2023-07-17T23:49:13.981Z,0.80
2023-07-17T23:51:44.394Z,0.98
2023-07-17T23:54:12.438Z,2.05
2023-07-17T23:56:40.634Z,0.88
2023-07-17T23:59:08.520Z,1.05
